Bavaria

Go HERE for most recent data if this page is not up to date.

Jump to table bottom
Date Time Temp F RH % AVG Wind Max Wind Wind Dir 24 Snow Depth
02/24 01:00 19.2 60 4 10 W - 278 0.2 41.9
02/24 00:00 19.1 60 4 11 NW - 324 0.2 41.3
02/23 23:00 19.4 58 3 10 W - 277 0.2 41.4
02/23 22:00 19.3 56 4 8 SW - 230 0.2 41.3
02/23 21:00 19.2 56 3 8 W - 275 0.2 41.3
02/23 20:00 19.1 52 2 6 W - 249 0.2 41.3
02/23 19:00 19.3 49 3 10 W - 272 0.2 41.5
02/23 18:00 19.8 48 3 10 W - 281 0.0 152.5
02/23 17:00 22.6 46 2 5 NW - 320 0.0 152.5
02/23 16:00 23.7 44 2 7 SW - 224 -0.0 152.5
02/23 15:00 26.3 44 3 9 S - 202 -0.4 152.5
02/23 14:00 28.9 39 2 5 W - 256 -0.5 39.6
02/23 13:00 27.9 40 2 6 SE - 155 -0.5 39.8
02/23 12:00 26.7 43 4 12 S - 189 -0.4 40.0
02/23 11:00 22.1 47 7 12 NW - 315 -0.3 40.5
02/23 10:00 21.8 53 3 8 NW - 304 -0.0 40.9
02/23 09:00 18.4 65 4 13 NW - 295 0.2 41.1
02/23 08:00 14.3 74 6 13 NW - 296 0.2 41.1
02/23 07:00 13.1 80 5 12 W - 267 0.1 40.9
02/23 06:00 13.6 76 7 12 N - 346 0.2 41.0
02/23 05:00 13.6 78 4 11 NW - 312 0.1 40.9
02/23 04:00 13.8 84 5 10 NW - 296 0.1 40.7
02/23 03:00 14.2 84 2 5 W - 266 0.0 40.6
02/23 02:00 15.2 82 3 9 W - 277 0.1 40.6
02/23 01:00 15.3 85 4 12 W - 261 0.1 40.7
02/23 00:00 15.8 83 2 10 NW - 295 0.1 40.8
.